sensor_id;sensor_type;location;lat;lon;timestamp;temperature;humidity
40255;DHT22;25973;52.368;4.940;2023-04-06T00:00:11;8.10;99.90
40255;DHT22;25973;52.368;4.940;2023-04-06T00:02:37;8.10;99.90
40255;DHT22;25973;52.368;4.940;2023-04-06T00:05:03;8.10;99.90
40255;DHT22;25973;52.368;4.940;2023-04-06T00:07:28;8.10;99.90
40255;DHT22;25973;52.368;4.940;2023-04-06T00:09:54;8.00;99.90
40255;DHT22;25973;52.368;4.940;2023-04-06T00:12:20;8.00;99.90
40255;DHT22;25973;52.368;4.940;2023-04-06T00:14:46;8.00;99.90
40255;DHT22;25973;52.368;4.940;2023-04-06T00:17:11;8.00;99.80
40255;DHT22;25973;52.368;4.940;2023-04-06T00:19:37;8.00;99.80
40255;DHT22;25973;52.368;4.940;2023-04-06T00:22:02;8.00;99.80
40255;DHT22;25973;52.368;4.940;2023-04-06T00:24:28;7.90;99.90
40255;DHT22;25973;52.368;4.940;2023-04-06T00:26:53;7.90;99.90
40255;DHT22;25973;52.368;4.940;2023-04-06T00:29:19;7.90;99.90
40255;DHT22;25973;52.368;4.940;2023-04-06T00:31:45;7.90;99.90
40255;DHT22;25973;52.368;4.940;2023-04-06T00:34:10;7.90;99.90
40255;DHT22;25973;52.368;4.940;2023-04-06T00:36:35;7.90;99.90
40255;DHT22;25973;52.368;4.940;2023-04-06T00:39:01;7.90;99.90
40255;DHT22;25973;52.368;4.940;2023-04-06T00:41:26;7.90;99.90
40255;DHT22;25973;52.368;4.940;2023-04-06T00:43:53;7.90;99.90
40255;DHT22;25973;52.368;4.940;2023-04-06T00:46:18;7.90;99.90
40255;DHT22;25973;52.368;4.940;2023-04-06T00:48:44;7.90;99.90
40255;DHT22;25973;52.368;4.940;2023-04-06T00:51:09;7.90;99.90
40255;DHT22;25973;52.368;4.940;2023-04-06T00:53:35;7.90;99.90
40255;DHT22;25973;52.368;4.940;2023-04-06T00:56:00;7.90;99.80
40255;DHT22;25973;52.368;4.940;2023-04-06T00:58:26;7.80;99.90
40255;DHT22;25973;52.368;4.940;2023-04-06T01:00:51;7.80;99.90
40255;DHT22;25973;52.368;4.940;2023-04-06T01:03:17;7.70;99.90
40255;DHT22;25973;52.368;4.940;2023-04-06T01:05:42;7.70;99.90
40255;DHT22;25973;52.368;4.940;2023-04-06T01:08:09;7.70;99.90
40255;DHT22;25973;52.368;4.940;2023-04-06T01:10:34;7.70;99.90
40255;DHT22;25973;52.368;4.940;2023-04-06T01:13:00;7.70;99.90
40255;DHT22;25973;52.368;4.940;2023-04-06T01:15:25;7.70;99.90
40255;DHT22;25973;52.368;4.940;2023-04-06T01:17:52;7.70;99.90
40255;DHT22;25973;52.368;4.940;2023-04-06T01:20:17;7.70;99.80
40255;DHT22;25973;52.368;4.940;2023-04-06T01:22:43;7.70;99.70
40255;DHT22;25973;52.368;4.940;2023-04-06T01:25:08;7.60;99.80
40255;DHT22;25973;52.368;4.940;2023-04-06T01:27:34;7.60;99.60
40255;DHT22;25973;52.368;4.940;2023-04-06T01:30:00;7.60;99.50
40255;DHT22;25973;52.368;4.940;2023-04-06T01:32:25;7.50;99.60
40255;DHT22;25973;52.368;4.940;2023-04-06T01:34:51;7.50;99.90
40255;DHT22;25973;52.368;4.940;2023-04-06T01:37:16;7.50;99.90
40255;DHT22;25973;52.368;4.940;2023-04-06T01:39:42;7.50;99.70
40255;DHT22;25973;52.368;4.940;2023-04-06T01:42:08;7.40;99.90
40255;DHT22;25973;52.368;4.940;2023-04-06T01:44:33;7.50;99.60
40255;DHT22;25973;52.368;4.940;2023-04-06T01:46:58;7.60;99.70
40255;DHT22;25973;52.368;4.940;2023-04-06T01:49:24;7.60;98.90
40255;DHT22;25973;52.368;4.940;2023-04-06T01:51:50;7.70;99.00
40255;DHT22;25973;52.368;4.940;2023-04-06T01:54:15;7.70;98.80
40255;DHT22;25973;52.368;4.940;2023-04-06T01:56:41;7.70;98.70
40255;DHT22;25973;52.368;4.940;2023-04-06T01:59:06;7.70;98.50
40255;DHT22;25973;52.368;4.940;2023-04-06T02:01:32;7.70;98.80
40255;DHT22;25973;52.368;4.940;2023-04-06T02:03:57;7.70;98.50
40255;DHT22;25973;52.368;4.940;2023-04-06T02:06:23;7.70;98.50
40255;DHT22;25973;52.368;4.940;2023-04-06T02:08:48;7.80;98.70
40255;DHT22;25973;52.368;4.940;2023-04-06T02:11:14;7.80;98.70
40255;DHT22;25973;52.368;4.940;2023-04-06T02:13:39;7.80;98.60
40255;DHT22;25973;52.368;4.940;2023-04-06T02:16:05;7.80;98.70
40255;DHT22;25973;52.368;4.940;2023-04-06T02:18:30;7.80;98.80
40255;DHT22;25973;52.368;4.940;2023-04-06T02:20:56;7.80;98.60
40255;DHT22;25973;52.368;4.940;2023-04-06T02:23:21;7.80;98.80
40255;DHT22;25973;52.368;4.940;2023-04-06T02:25:47;7.80;98.60
40255;DHT22;25973;52.368;4.940;2023-04-06T02:28:12;7.80;98.80
40255;DHT22;25973;52.368;4.940;2023-04-06T02:30:38;7.80;99.10
40255;DHT22;25973;52.368;4.940;2023-04-06T02:33:03;7.70;99.10
40255;DHT22;25973;52.368;4.940;2023-04-06T02:35:29;7.70;99.40
40255;DHT22;25973;52.368;4.940;2023-04-06T02:37:55;7.70;99.50
40255;DHT22;25973;52.368;4.940;2023-04-06T02:40:20;7.70;99.60
40255;DHT22;25973;52.368;4.940;2023-04-06T02:42:46;7.80;99.80
40255;DHT22;25973;52.368;4.940;2023-04-06T02:45:11;7.70;99.90
40255;DHT22;25973;52.368;4.940;2023-04-06T02:47:37;7.70;99.90
40255;DHT22;25973;52.368;4.940;2023-04-06T02:50:02;7.70;99.90
40255;DHT22;25973;52.368;4.940;2023-04-06T02:52:28;7.70;99.90
40255;DHT22;25973;52.368;4.940;2023-04-06T02:54:53;7.70;99.90
40255;DHT22;25973;52.368;4.940;2023-04-06T02:57:19;7.70;99.90
40255;DHT22;25973;52.368;4.940;2023-04-06T02:59:44;7.70;99.90
40255;DHT22;25973;52.368;4.940;2023-04-06T03:02:10;7.60;99.90
40255;DHT22;25973;52.368;4.940;2023-04-06T03:04:35;7.60;99.90
40255;DHT22;25973;52.368;4.940;2023-04-06T03:07:01;7.60;99.90
40255;DHT22;25973;52.368;4.940;2023-04-06T03:09:26;7.60;99.90
40255;DHT22;25973;52.368;4.940;2023-04-06T03:11:52;7.60;99.90
40255;DHT22;25973;52.368;4.940;2023-04-06T03:14:18;7.50;99.90
40255;DHT22;25973;52.368;4.940;2023-04-06T03:16:47;7.60;99.90
40255;DHT22;25973;52.368;4.940;2023-04-06T03:19:12;7.60;99.90
40255;DHT22;25973;52.368;4.940;2023-04-06T03:21:38;7.60;99.90
40255;DHT22;25973;52.368;4.940;2023-04-06T03:24:04;7.70;99.90
40255;DHT22;25973;52.368;4.940;2023-04-06T03:26:30;7.70;99.90
40255;DHT22;25973;52.368;4.940;2023-04-06T03:28:55;7.70;99.90
40255;DHT22;25973;52.368;4.940;2023-04-06T03:31:21;7.70;99.90
40255;DHT22;25973;52.368;4.940;2023-04-06T03:33:46;7.70;99.90
40255;DHT22;25973;52.368;4.940;2023-04-06T03:36:11;7.80;99.90
40255;DHT22;25973;52.368;4.940;2023-04-06T03:38:37;7.80;99.90
40255;DHT22;25973;52.368;4.940;2023-04-06T03:41:02;7.90;99.90
40255;DHT22;25973;52.368;4.940;2023-04-06T03:43:28;7.80;99.90
40255;DHT22;25973;52.368;4.940;2023-04-06T03:45:53;7.90;99.90
40255;DHT22;25973;52.368;4.940;2023-04-06T03:48:19;7.90;99.90
40255;DHT22;25973;52.368;4.940;2023-04-06T03:50:44;7.90;99.90
40255;DHT22;25973;52.368;4.940;2023-04-06T03:53:10;7.80;99.90
40255;DHT22;25973;52.368;4.940;2023-04-06T03:55:36;7.80;99.90
40255;DHT22;25973;52.368;4.940;2023-04-06T03:58:01;7.90;99.90
40255;DHT22;25973;52.368;4.940;2023-04-06T04:00:27;7.90;99.90
40255;DHT22;25973;52.368;4.940;2023-04-06T04:02:54;7.80;99.90
40255;DHT22;25973;52.368;4.940;2023-04-06T04:05:19;7.80;99.90
40255;DHT22;25973;52.368;4.940;2023-04-06T04:07:50;7.80;99.90
40255;DHT22;25973;52.368;4.940;2023-04-06T04:10:15;7.80;99.90
40255;DHT22;25973;52.368;4.940;2023-04-06T04:12:41;7.80;99.90
40255;DHT22;25973;52.368;4.940;2023-04-06T04:15:06;7.80;99.90
40255;DHT22;25973;52.368;4.940;2023-04-06T04:17:32;7.80;99.90
40255;DHT22;25973;52.368;4.940;2023-04-06T04:19:57;7.70;99.90
40255;DHT22;25973;52.368;4.940;2023-04-06T04:22:23;7.70;99.90
40255;DHT22;25973;52.368;4.940;2023-04-06T04:24:48;7.60;99.90
40255;DHT22;25973;52.368;4.940;2023-04-06T04:27:14;7.70;99.90
40255;DHT22;25973;52.368;4.940;2023-04-06T04:29:39;7.60;99.90
40255;DHT22;25973;52.368;4.940;2023-04-06T04:32:05;7.70;99.90
40255;DHT22;25973;52.368;4.940;2023-04-06T04:34:30;7.70;99.90
40255;DHT22;25973;52.368;4.940;2023-04-06T04:36:56;7.70;99.90
40255;DHT22;25973;52.368;4.940;2023-04-06T04:39:22;7.80;99.90
40255;DHT22;25973;52.368;4.940;2023-04-06T04:41:47;7.80;99.90
40255;DHT22;25973;52.368;4.940;2023-04-06T04:44:13;7.80;99.90
40255;DHT22;25973;52.368;4.940;2023-04-06T04:46:38;7.90;99.90
40255;DHT22;25973;52.368;4.940;2023-04-06T04:49:04;7.90;99.90
40255;DHT22;25973;52.368;4.940;2023-04-06T04:51:29;7.90;99.90
40255;DHT22;25973;52.368;4.940;2023-04-06T04:53:56;7.80;99.90
40255;DHT22;25973;52.368;4.940;2023-04-06T04:56:21;7.80;99.90
40255;DHT22;25973;52.368;4.940;2023-04-06T04:58:47;7.70;99.90
40255;DHT22;25973;52.368;4.940;2023-04-06T05:01:12;7.70;99.90
40255;DHT22;25973;52.368;4.940;2023-04-06T05:03:38;7.60;99.90
40255;DHT22;25973;52.368;4.940;2023-04-06T05:06:04;7.60;99.90
40255;DHT22;25973;52.368;4.940;2023-04-06T05:08:30;7.50;99.90
40255;DHT22;25973;52.368;4.940;2023-04-06T05:10:55;7.50;99.90
40255;DHT22;25973;52.368;4.940;2023-04-06T05:13:21;7.40;99.90
40255;DHT22;25973;52.368;4.940;2023-04-06T05:15:46;7.40;99.90
40255;DHT22;25973;52.368;4.940;2023-04-06T05:18:12;7.40;99.90
40255;DHT22;25973;52.368;4.940;2023-04-06T05:20:38;7.30;99.90
40255;DHT22;25973;52.368;4.940;2023-04-06T05:23:04;7.30;99.90
40255;DHT22;25973;52.368;4.940;2023-04-06T05:25:29;7.30;99.90
40255;DHT22;25973;52.368;4.940;2023-04-06T05:27:55;7.30;99.90
40255;DHT22;25973;52.368;4.940;2023-04-06T05:30:21;7.30;99.90
40255;DHT22;25973;52.368;4.940;2023-04-06T05:32:46;7.30;99.90
40255;DHT22;25973;52.368;4.940;2023-04-06T05:35:12;7.40;99.90
40255;DHT22;25973;52.368;4.940;2023-04-06T05:37:38;7.40;99.90
40255;DHT22;25973;52.368;4.940;2023-04-06T05:40:03;7.40;99.90
40255;DHT22;25973;52.368;4.940;2023-04-06T05:42:36;7.40;99.90
40255;DHT22;25973;52.368;4.940;2023-04-06T05:45:03;7.40;99.90
40255;DHT22;25973;52.368;4.940;2023-04-06T05:47:28;7.40;99.90
40255;DHT22;25973;52.368;4.940;2023-04-06T05:49:54;7.50;99.90
40255;DHT22;25973;52.368;4.940;2023-04-06T05:52:19;7.50;99.90
40255;DHT22;25973;52.368;4.940;2023-04-06T05:54:45;7.40;99.90
40255;DHT22;25973;52.368;4.940;2023-04-06T05:57:10;7.40;99.90
40255;DHT22;25973;52.368;4.940;2023-04-06T05:59:36;7.50;99.90
40255;DHT22;25973;52.368;4.940;2023-04-06T06:02:01;7.40;99.90
40255;DHT22;25973;52.368;4.940;2023-04-06T06:04:26;7.50;99.90
40255;DHT22;25973;52.368;4.940;2023-04-06T06:06:52;7.50;99.90
40255;DHT22;25973;52.368;4.940;2023-04-06T06:09:17;7.50;99.90
40255;DHT22;25973;52.368;4.940;2023-04-06T06:11:43;7.60;99.90
40255;DHT22;25973;52.368;4.940;2023-04-06T06:14:08;7.60;99.90
40255;DHT22;25973;52.368;4.940;2023-04-06T06:16:34;7.70;99.90
40255;DHT22;25973;52.368;4.940;2023-04-06T06:18:59;7.80;99.90
40255;DHT22;25973;52.368;4.940;2023-04-06T06:21:25;7.90;99.90
40255;DHT22;25973;52.368;4.940;2023-04-06T06:23:50;8.00;99.90
40255;DHT22;25973;52.368;4.940;2023-04-06T06:26:16;8.10;99.90
40255;DHT22;25973;52.368;4.940;2023-04-06T06:28:45;8.30;99.90
40255;DHT22;25973;52.368;4.940;2023-04-06T06:31:10;8.40;99.90
40255;DHT22;25973;52.368;4.940;2023-04-06T06:33:36;8.60;99.90
40255;DHT22;25973;52.368;4.940;2023-04-06T06:36:01;8.70;99.90
40255;DHT22;25973;52.368;4.940;2023-04-06T06:38:27;8.80;99.90
40255;DHT22;25973;52.368;4.940;2023-04-06T06:40:52;8.90;99.90
40255;DHT22;25973;52.368;4.940;2023-04-06T06:43:17;9.00;99.90
40255;DHT22;25973;52.368;4.940;2023-04-06T06:45:43;9.00;99.90
40255;DHT22;25973;52.368;4.940;2023-04-06T06:48:08;9.10;99.90
40255;DHT22;25973;52.368;4.940;2023-04-06T06:50:34;9.00;99.90
40255;DHT22;25973;52.368;4.940;2023-04-06T06:52:59;9.00;99.90
40255;DHT22;25973;52.368;4.940;2023-04-06T06:55:25;8.90;99.90
40255;DHT22;25973;52.368;4.940;2023-04-06T06:57:52;8.90;99.90
40255;DHT22;25973;52.368;4.940;2023-04-06T07:00:18;8.90;99.90
40255;DHT22;25973;52.368;4.940;2023-04-06T07:02:45;8.90;99.90
40255;DHT22;25973;52.368;4.940;2023-04-06T07:05:10;8.90;99.90
40255;DHT22;25973;52.368;4.940;2023-04-06T07:07:36;8.90;99.90
40255;DHT22;25973;52.368;4.940;2023-04-06T07:10:01;8.90;99.90
40255;DHT22;25973;52.368;4.940;2023-04-06T07:12:27;8.90;99.90
40255;DHT22;25973;52.368;4.940;2023-04-06T07:14:52;9.00;99.90
40255;DHT22;25973;52.368;4.940;2023-04-06T07:17:18;9.00;99.90
40255;DHT22;25973;52.368;4.940;2023-04-06T07:19:43;9.00;99.90
40255;DHT22;25973;52.368;4.940;2023-04-06T07:22:10;9.00;99.90
40255;DHT22;25973;52.368;4.940;2023-04-06T07:24:35;9.00;99.90
40255;DHT22;25973;52.368;4.940;2023-04-06T07:27:01;9.00;99.90
40255;DHT22;25973;52.368;4.940;2023-04-06T07:29:27;9.00;99.90
40255;DHT22;25973;52.368;4.940;2023-04-06T07:31:53;9.00;99.90
40255;DHT22;25973;52.368;4.940;2023-04-06T07:34:18;9.00;99.90
40255;DHT22;25973;52.368;4.940;2023-04-06T07:36:44;9.00;99.90
40255;DHT22;25973;52.368;4.940;2023-04-06T07:39:09;9.00;99.90
40255;DHT22;25973;52.368;4.940;2023-04-06T07:41:36;9.00;99.90
40255;DHT22;25973;52.368;4.940;2023-04-06T07:44:01;9.10;99.90
40255;DHT22;25973;52.368;4.940;2023-04-06T07:46:26;9.10;99.90
40255;DHT22;25973;52.368;4.940;2023-04-06T07:48:52;9.10;99.90
40255;DHT22;25973;52.368;4.940;2023-04-06T07:51:17;9.20;99.90
40255;DHT22;25973;52.368;4.940;2023-04-06T07:53:46;9.20;99.90
40255;DHT22;25973;52.368;4.940;2023-04-06T07:56:11;9.10;99.90
40255;DHT22;25973;52.368;4.940;2023-04-06T07:58:40;9.20;99.90
40255;DHT22;25973;52.368;4.940;2023-04-06T08:01:06;9.10;99.90
40255;DHT22;25973;52.368;4.940;2023-04-06T08:03:33;9.10;99.90
40255;DHT22;25973;52.368;4.940;2023-04-06T08:05:58;9.10;99.90
40255;DHT22;25973;52.368;4.940;2023-04-06T08:08:24;9.10;99.90
40255;DHT22;25973;52.368;4.940;2023-04-06T08:10:49;9.20;99.90
40255;DHT22;25973;52.368;4.940;2023-04-06T08:13:15;9.30;99.90
40255;DHT22;25973;52.368;4.940;2023-04-06T08:15:41;9.40;99.90
40255;DHT22;25973;52.368;4.940;2023-04-06T08:18:07;9.50;99.90
40255;DHT22;25973;52.368;4.940;2023-04-06T08:20:33;9.70;99.90
40255;DHT22;25973;52.368;4.940;2023-04-06T08:22:58;9.70;99.90
40255;DHT22;25973;52.368;4.940;2023-04-06T08:25:24;9.70;99.90
40255;DHT22;25973;52.368;4.940;2023-04-06T08:27:49;9.90;99.90
40255;DHT22;25973;52.368;4.940;2023-04-06T08:30:15;10.00;99.90
40255;DHT22;25973;52.368;4.940;2023-04-06T08:32:41;10.00;99.90
40255;DHT22;25973;52.368;4.940;2023-04-06T08:35:06;10.00;99.90
40255;DHT22;25973;52.368;4.940;2023-04-06T08:37:32;10.00;99.90
40255;DHT22;25973;52.368;4.940;2023-04-06T08:39:58;9.90;99.90
40255;DHT22;25973;52.368;4.940;2023-04-06T08:42:25;9.90;99.90
40255;DHT22;25973;52.368;4.940;2023-04-06T08:44:51;9.90;99.90
40255;DHT22;25973;52.368;4.940;2023-04-06T08:47:17;9.80;99.90
40255;DHT22;25973;52.368;4.940;2023-04-06T08:49:43;9.80;99.90
40255;DHT22;25973;52.368;4.940;2023-04-06T08:52:09;9.90;99.90
40255;DHT22;25973;52.368;4.940;2023-04-06T08:54:35;10.00;99.90
40255;DHT22;25973;52.368;4.940;2023-04-06T08:57:01;10.10;99.90
40255;DHT22;25973;52.368;4.940;2023-04-06T08:59:27;10.20;99.90
40255;DHT22;25973;52.368;4.940;2023-04-06T09:01:53;10.40;99.90
40255;DHT22;25973;52.368;4.940;2023-04-06T09:04:19;10.40;99.90
40255;DHT22;25973;52.368;4.940;2023-04-06T09:06:45;10.40;99.90
40255;DHT22;25973;52.368;4.940;2023-04-06T09:09:10;10.50;99.90
40255;DHT22;25973;52.368;4.940;2023-04-06T09:11:43;10.50;99.90
40255;DHT22;25973;52.368;4.940;2023-04-06T09:14:09;10.60;99.90
40255;DHT22;25973;52.368;4.940;2023-04-06T09:16:38;10.70;99.90
40255;DHT22;25973;52.368;4.940;2023-04-06T09:19:04;10.70;99.90
40255;DHT22;25973;52.368;4.940;2023-04-06T09:21:30;10.80;99.90
40255;DHT22;25973;52.368;4.940;2023-04-06T09:23:59;10.90;99.90
40255;DHT22;25973;52.368;4.940;2023-04-06T09:26:25;10.80;99.90
40255;DHT22;25973;52.368;4.940;2023-04-06T09:28:55;10.80;99.90
40255;DHT22;25973;52.368;4.940;2023-04-06T09:31:22;10.70;99.90
40255;DHT22;25973;52.368;4.940;2023-04-06T09:33:48;10.60;99.90
40255;DHT22;25973;52.368;4.940;2023-04-06T09:36:13;10.50;99.90
40255;DHT22;25973;52.368;4.940;2023-04-06T09:38:53;10.50;99.90
40255;DHT22;25973;52.368;4.940;2023-04-06T09:41:25;10.50;99.90
40255;DHT22;25973;52.368;4.940;2023-04-06T09:43:52;10.50;99.90
40255;DHT22;25973;52.368;4.940;2023-04-06T09:46:18;10.50;99.90
40255;DHT22;25973;52.368;4.940;2023-04-06T09:48:46;10.40;99.90
40255;DHT22;25973;52.368;4.940;2023-04-06T09:51:12;10.40;99.90
40255;DHT22;25973;52.368;4.940;2023-04-06T09:53:39;10.40;99.90
40255;DHT22;25973;52.368;4.940;2023-04-06T09:56:07;10.30;99.90
40255;DHT22;25973;52.368;4.940;2023-04-06T09:58:35;10.20;99.90
40255;DHT22;25973;52.368;4.940;2023-04-06T10:01:02;10.20;99.90
40255;DHT22;25973;52.368;4.940;2023-04-06T10:03:35;10.10;99.90
40255;DHT22;25973;52.368;4.940;2023-04-06T10:06:06;9.90;99.90
40255;DHT22;25973;52.368;4.940;2023-04-06T10:08:36;9.80;99.90
40255;DHT22;25973;52.368;4.940;2023-04-06T10:11:02;9.80;99.90
40255;DHT22;25973;52.368;4.940;2023-04-06T10:13:27;9.80;99.90
40255;DHT22;25973;52.368;4.940;2023-04-06T10:15:54;9.80;99.90
40255;DHT22;25973;52.368;4.940;2023-04-06T10:18:19;9.80;99.90
40255;DHT22;25973;52.368;4.940;2023-04-06T10:25:56;9.50;99.90
40255;DHT22;25973;52.368;4.940;2023-04-06T10:28:22;9.60;99.90
40255;DHT22;25973;52.368;4.940;2023-04-06T10:30:47;9.60;99.90
40255;DHT22;25973;52.368;4.940;2023-04-06T10:33:17;9.80;99.90
40255;DHT22;25973;52.368;4.940;2023-04-06T10:35:43;9.90;99.90
40255;DHT22;25973;52.368;4.940;2023-04-06T10:38:08;10.00;99.90
40255;DHT22;25973;52.368;4.940;2023-04-06T10:40:38;9.90;99.90
40255;DHT22;25973;52.368;4.940;2023-04-06T10:43:10;9.80;99.90
40255;DHT22;25973;52.368;4.940;2023-04-06T10:45:36;9.70;99.90
40255;DHT22;25973;52.368;4.940;2023-04-06T10:48:12;9.70;99.90
40255;DHT22;25973;52.368;4.940;2023-04-06T10:50:38;9.60;99.90
40255;DHT22;25973;52.368;4.940;2023-04-06T10:53:05;9.60;99.90
40255;DHT22;25973;52.368;4.940;2023-04-06T10:55:31;9.60;99.90
40255;DHT22;25973;52.368;4.940;2023-04-06T10:57:57;9.60;99.90
40255;DHT22;25973;52.368;4.940;2023-04-06T11:00:22;9.60;99.90
40255;DHT22;25973;52.368;4.940;2023-04-06T11:02:48;9.60;99.90
40255;DHT22;25973;52.368;4.940;2023-04-06T11:05:14;9.60;99.90
40255;DHT22;25973;52.368;4.940;2023-04-06T11:07:39;9.70;99.90
40255;DHT22;25973;52.368;4.940;2023-04-06T11:10:05;9.70;99.90
40255;DHT22;25973;52.368;4.940;2023-04-06T11:12:31;9.80;99.90
40255;DHT22;25973;52.368;4.940;2023-04-06T11:14:57;9.80;99.90
40255;DHT22;25973;52.368;4.940;2023-04-06T11:17:34;9.80;99.90
40255;DHT22;25973;52.368;4.940;2023-04-06T11:20:01;9.70;99.90
40255;DHT22;25973;52.368;4.940;2023-04-06T11:22:26;9.70;99.90
40255;DHT22;25973;52.368;4.940;2023-04-06T11:24:52;9.70;99.90
40255;DHT22;25973;52.368;4.940;2023-04-06T11:27:21;9.70;99.90
40255;DHT22;25973;52.368;4.940;2023-04-06T11:29:46;9.70;99.90
40255;DHT22;25973;52.368;4.940;2023-04-06T11:32:19;9.70;99.90
40255;DHT22;25973;52.368;4.940;2023-04-06T11:34:44;9.80;99.90
40255;DHT22;25973;52.368;4.940;2023-04-06T11:37:11;9.90;99.90
40255;DHT22;25973;52.368;4.940;2023-04-06T11:39:37;10.00;99.90
40255;DHT22;25973;52.368;4.940;2023-04-06T11:42:04;9.90;99.90
40255;DHT22;25973;52.368;4.940;2023-04-06T11:44:34;9.80;99.90
40255;DHT22;25973;52.368;4.940;2023-04-06T11:47:03;9.70;99.90
40255;DHT22;25973;52.368;4.940;2023-04-06T11:49:29;9.70;99.90
40255;DHT22;25973;52.368;4.940;2023-04-06T11:51:54;9.50;99.90
40255;DHT22;25973;52.368;4.940;2023-04-06T11:54:33;9.40;99.90
40255;DHT22;25973;52.368;4.940;2023-04-06T11:56:58;9.40;99.90
40255;DHT22;25973;52.368;4.940;2023-04-06T11:59:26;9.50;99.90
40255;DHT22;25973;52.368;4.940;2023-04-06T12:01:52;9.40;99.90
40255;DHT22;25973;52.368;4.940;2023-04-06T12:04:18;9.40;99.90
40255;DHT22;25973;52.368;4.940;2023-04-06T12:06:44;9.30;99.90
40255;DHT22;25973;52.368;4.940;2023-04-06T12:09:09;9.40;99.90
40255;DHT22;25973;52.368;4.940;2023-04-06T12:11:35;9.30;99.90
40255;DHT22;25973;52.368;4.940;2023-04-06T12:14:00;9.30;99.90
40255;DHT22;25973;52.368;4.940;2023-04-06T12:16:27;9.20;99.90
40255;DHT22;25973;52.368;4.940;2023-04-06T12:18:52;9.20;99.90
40255;DHT22;25973;52.368;4.940;2023-04-06T12:21:17;9.10;99.90
40255;DHT22;25973;52.368;4.940;2023-04-06T12:23:43;9.00;99.90
40255;DHT22;25973;52.368;4.940;2023-04-06T12:26:08;9.00;99.90
40255;DHT22;25973;52.368;4.940;2023-04-06T12:28:34;9.00;99.90
40255;DHT22;25973;52.368;4.940;2023-04-06T12:30:59;8.90;99.90
40255;DHT22;25973;52.368;4.940;2023-04-06T12:33:25;8.90;99.90
40255;DHT22;25973;52.368;4.940;2023-04-06T12:35:50;8.90;99.90
40255;DHT22;25973;52.368;4.940;2023-04-06T12:38:16;9.00;99.90
40255;DHT22;25973;52.368;4.940;2023-04-06T12:40:45;9.00;99.90
40255;DHT22;25973;52.368;4.940;2023-04-06T12:43:10;9.00;99.90
40255;DHT22;25973;52.368;4.940;2023-04-06T12:45:36;9.10;99.90
40255;DHT22;25973;52.368;4.940;2023-04-06T12:48:01;9.10;99.90
40255;DHT22;25973;52.368;4.940;2023-04-06T12:50:27;9.10;99.90
40255;DHT22;25973;52.368;4.940;2023-04-06T12:52:52;9.10;99.90
40255;DHT22;25973;52.368;4.940;2023-04-06T12:55:18;9.10;99.90
40255;DHT22;25973;52.368;4.940;2023-04-06T12:57:44;9.20;99.90
40255;DHT22;25973;52.368;4.940;2023-04-06T13:00:10;9.20;99.90
40255;DHT22;25973;52.368;4.940;2023-04-06T13:02:36;9.20;99.90
40255;DHT22;25973;52.368;4.940;2023-04-06T13:05:01;9.20;99.90
40255;DHT22;25973;52.368;4.940;2023-04-06T13:07:27;9.20;99.90
40255;DHT22;25973;52.368;4.940;2023-04-06T13:09:52;9.20;99.90
40255;DHT22;25973;52.368;4.940;2023-04-06T13:12:19;9.20;99.90
40255;DHT22;25973;52.368;4.940;2023-04-06T13:14:44;9.20;99.90
40255;DHT22;25973;52.368;4.940;2023-04-06T13:17:12;9.20;99.90
40255;DHT22;25973;52.368;4.940;2023-04-06T13:19:38;9.20;99.90
40255;DHT22;25973;52.368;4.940;2023-04-06T13:22:03;9.10;99.90
40255;DHT22;25973;52.368;4.940;2023-04-06T13:24:28;9.00;99.90
40255;DHT22;25973;52.368;4.940;2023-04-06T13:26:54;9.00;99.90
40255;DHT22;25973;52.368;4.940;2023-04-06T13:29:19;9.10;99.90
40255;DHT22;25973;52.368;4.940;2023-04-06T13:31:46;9.10;99.90
40255;DHT22;25973;52.368;4.940;2023-04-06T13:34:11;9.10;99.90
40255;DHT22;25973;52.368;4.940;2023-04-06T13:36:36;9.10;99.90
40255;DHT22;25973;52.368;4.940;2023-04-06T13:39:02;9.10;99.90
40255;DHT22;25973;52.368;4.940;2023-04-06T13:41:28;9.20;99.90
40255;DHT22;25973;52.368;4.940;2023-04-06T13:43:53;9.20;99.90
40255;DHT22;25973;52.368;4.940;2023-04-06T13:46:19;9.20;99.90
40255;DHT22;25973;52.368;4.940;2023-04-06T13:48:45;9.20;99.90
40255;DHT22;25973;52.368;4.940;2023-04-06T13:51:12;9.20;99.90
40255;DHT22;25973;52.368;4.940;2023-04-06T13:53:38;9.20;99.90
40255;DHT22;25973;52.368;4.940;2023-04-06T13:56:04;9.20;99.90
40255;DHT22;25973;52.368;4.940;2023-04-06T13:58:29;9.20;99.90
40255;DHT22;25973;52.368;4.940;2023-04-06T14:01:01;9.20;99.90
40255;DHT22;25973;52.368;4.940;2023-04-06T14:03:27;9.20;99.90
40255;DHT22;25973;52.368;4.940;2023-04-06T14:05:52;9.20;99.90
40255;DHT22;25973;52.368;4.940;2023-04-06T14:08:18;9.10;99.90
40255;DHT22;25973;52.368;4.940;2023-04-06T14:10:43;9.10;99.90
40255;DHT22;25973;52.368;4.940;2023-04-06T14:13:09;9.10;99.90
40255;DHT22;25973;52.368;4.940;2023-04-06T14:15:34;9.10;99.90
40255;DHT22;25973;52.368;4.940;2023-04-06T14:18:00;9.10;99.90
40255;DHT22;25973;52.368;4.940;2023-04-06T14:20:26;9.10;99.90
40255;DHT22;25973;52.368;4.940;2023-04-06T14:22:52;9.10;99.90
40255;DHT22;25973;52.368;4.940;2023-04-06T14:25:19;9.10;99.90
40255;DHT22;25973;52.368;4.940;2023-04-06T14:27:45;9.10;99.90
40255;DHT22;25973;52.368;4.940;2023-04-06T14:30:10;9.00;99.90
40255;DHT22;25973;52.368;4.940;2023-04-06T14:32:36;9.00;99.90
40255;DHT22;25973;52.368;4.940;2023-04-06T14:35:03;9.00;99.90
40255;DHT22;25973;52.368;4.940;2023-04-06T14:37:28;9.00;99.90
40255;DHT22;25973;52.368;4.940;2023-04-06T14:39:54;9.00;99.90
40255;DHT22;25973;52.368;4.940;2023-04-06T14:42:19;9.00;99.90
40255;DHT22;25973;52.368;4.940;2023-04-06T14:44:45;8.90;99.90
40255;DHT22;25973;52.368;4.940;2023-04-06T14:47:11;8.90;99.90
40255;DHT22;25973;52.368;4.940;2023-04-06T14:49:37;9.00;99.90
40255;DHT22;25973;52.368;4.940;2023-04-06T14:52:02;8.90;99.90
40255;DHT22;25973;52.368;4.940;2023-04-06T14:54:28;8.90;99.90
40255;DHT22;25973;52.368;4.940;2023-04-06T14:56:53;8.80;99.90
40255;DHT22;25973;52.368;4.940;2023-04-06T14:59:19;8.80;99.90
40255;DHT22;25973;52.368;4.940;2023-04-06T15:01:45;8.70;99.90
40255;DHT22;25973;52.368;4.940;2023-04-06T15:04:10;8.70;99.90
40255;DHT22;25973;52.368;4.940;2023-04-06T15:06:36;8.70;99.90
40255;DHT22;25973;52.368;4.940;2023-04-06T15:09:02;8.80;99.90
40255;DHT22;25973;52.368;4.940;2023-04-06T15:11:28;8.70;99.90
40255;DHT22;25973;52.368;4.940;2023-04-06T15:13:53;8.70;99.90
40255;DHT22;25973;52.368;4.940;2023-04-06T15:16:19;8.70;99.90
40255;DHT22;25973;52.368;4.940;2023-04-06T15:18:44;8.70;99.90
40255;DHT22;25973;52.368;4.940;2023-04-06T15:21:10;8.70;99.90
40255;DHT22;25973;52.368;4.940;2023-04-06T15:23:35;8.70;99.90
40255;DHT22;25973;52.368;4.940;2023-04-06T15:26:01;8.70;99.90
40255;DHT22;25973;52.368;4.940;2023-04-06T15:28:26;8.70;99.90
40255;DHT22;25973;52.368;4.940;2023-04-06T15:30:53;8.60;99.90
40255;DHT22;25973;52.368;4.940;2023-04-06T15:33:19;8.60;99.90
40255;DHT22;25973;52.368;4.940;2023-04-06T15:35:45;8.60;99.90
40255;DHT22;25973;52.368;4.940;2023-04-06T15:38:11;8.60;99.90
40255;DHT22;25973;52.368;4.940;2023-04-06T15:40:43;8.60;99.90